Saturn, Texas
Current Conditions -  °F | °C
As of 7:15 PM on Sunday 23 Nov 2014 (Local Time) from KT20 Reporting Station
Clear Clear  
Wind Chill: 67°   Ceiling: Unl
Heat Index: 67°   Visibility: 10mi
Dew Point: 49°   Wind: 5mph
Humidity: 51%   Direction: 210°SSW
Pressure: 29.62"   Gusts: NA
Location:  29.6608°N, 97.4854°W
Report Text: KT20 240115Z AUTO 21004KT 10SM CLR 20/09 A2962 RMK AO2 T01970092
Loading
Personal Weather Stations






























Interactive Weather Map New forecast layout! Learn more

10-Day Weather Forecast

Advertisements
Track Severe Weather on mobile